Latest Weather Observations for Hobart

IDT60901

Issued at 12:11 pm EST Friday 28 August 2015 (issued every 10 minutes, with the page automatically refreshed every 10 minutes)

About weather observations | Map of Hobart area stations | Latest observations for Hobart area | Other Formats
Station Details ID: 094029 Name: HOBART (ELLERSLIE ROAD) Lat: -42.89 Lon: 147.33 Height: 50.5 m
Data from the previous 72 hours. | See also: Recent months at Hobart
Date/Time
EST
Tmp

°C
App
Tmp
°C
Dew
Point
°C
Rel
Hum
%
Delta-T

°C
Wind Press
QNH
hPa
Press
MSL
hPa
Rain
since
9 am
mm
Dir
 
Spd
km/h
Gust
km/h
Spd
kts
Gust
kts
28/12:00pm 6.9 2.1 2.5 73 1.8 SSW 17 28 9 15 1026.1 1026.2 1.4
28/11:30am 3.9 -3.5 1.6 85 0.9 SSW 30 52 16 28 1026.6 1026.7 1.4
28/11:12am 5.7 -1.4 1.4 74 1.7 SSE 28 46 15 25 1026.9 1027.0 0.6
28/11:00am 5.1 -1.8 2.4 83 1.1 SSE 28 43 15 23 1026.9 1027.0 0.6
28/10:30am 6.1 -0.3 0.7 68 2.1 S 24 43 13 23 1026.8 1026.9 0.2
28/10:00am 6.5 0.0 0.6 66 2.3 SSW 24 44 13 24 1026.7 1026.8 0.2
28/09:39am 6.2 -0.8 1.7 73 1.8 SSW 28 48 15 26 1026.8 1026.9 0.2
28/09:30am 6.4 -0.2 1.9 73 1.8 SSW 26 41 14 22 1026.7 1026.8 0.2
28/09:00am 6.3 0.6 0.7 67 2.2 SSW 20 32 11 17 1026.8 1026.9 2.0
28/08:30am 6.4 0.4 0.8 67 2.2 SSW 22 39 12 21 1026.6 1026.7 2.0
28/08:00am 5.3 -0.1 1.2 75 1.6 SSW 19 30 10 16 1026.3 1026.4 2.0
28/07:30am 5.0 -2.2 0.9 75 1.6 SSW 28 39 15 21 1026.1 1026.2 2.0
28/07:01am 4.8 -2.4 0.9 76 1.5 SSW 28 48 15 26 1025.8 1025.9 1.8
28/07:00am 4.8 -2.0 0.9 76 1.5 S 26 48 14 26 1025.7 1025.8 1.8
28/06:36am 5.0 -2.3 0.3 71 1.8 SSW 28 54 15 29 1025.3 1025.4 1.8
28/06:30am 5.1 -1.9 -0.2 68 2.0 SSW 26 39 14 21 1025.2 1025.3 1.8
28/06:00am 5.2 -1.6 0.5 72 1.8 SSW 26 39 14 21 1024.5 1024.6 1.8
28/05:47am 5.5 -1.7 0.9 72 1.8 SSW 28 48 15 26 1024.4 1024.5 1.8
28/05:30am 5.3 1.8 1.5 76 1.5 SSE 9 22 5 12 1024.5 1024.6 1.8
28/05:06am 5.2 -2.5 2.2 81 1.2 S 32 50 17 27 1024.8 1024.9 1.8
28/05:00am 5.2 -0.2 2.5 83 1.1 SE 20 46 11 25 1024.8 1024.9 1.4
28/04:30am 5.9 -1.0 2.5 79 1.4 SSW 28 46 15 25 1024.0 1024.1 1.0
28/04:06am 6.1 -1.4 3.2 82 1.2 SSW 32 52 17 28 1023.6 1023.7 1.0
28/04:00am 6.2 -1.5 3.3 82 1.2 SSW 33 48 18 26 1023.7 1023.8 1.0
28/03:45am 6.3 -0.5 3.2 80 1.3 SSW 28 46 15 25 1023.5 1023.6 0.6
28/03:30am 6.3 0.3 3.4 82 1.2 SSW 24 41 13 22 1023.9 1024.0 0.6
28/03:15am 6.4 -0.3 3.8 83 1.1 S 28 46 15 25 1023.8 1023.9 0.6
28/03:00am 6.5 0.3 4.2 85 1.0 S 26 41 14 22 1023.8 1023.9 0.4
28/02:30am 6.9 1.1 4.3 83 1.1 SSW 24 39 13 21 1024.0 1024.1 0.2
28/02:00am 7.1 2.2 5.0 86 0.9 S 20 32 11 17 1024.0 1024.1 0.2
28/01:30am 7.3 2.1 5.3 87 0.9 SSW 22 35 12 19 1023.7 1023.8 0.2
28/01:00am 7.7 2.4 5.0 83 1.2 SSW 22 39 12 21 1023.4 1023.5 0.0
28/12:30am 7.5 5.0 5.0 84 1.1 W 7 15 4 8 1023.2 1023.3 0.0
28/12:00am 7.2 4.8 5.2 87 0.9 NW 7 11 4 6 1022.9 1023.0 0.0
 
Date/Time
EST
Tmp

°C
App
Tmp
°C
Dew
Point
°C
Rel
Hum
%
Delta-T

°C
Wind Press
QNH
hPa
Press
MSL
hPa
Rain
since
9 am
mm
Dir
 
Spd
km/h
Gust
km/h
Spd
kts
Gust
kts
27/11:30pm 7.7 6.3 5.7 87 0.9 S 2 9 1 5 1023.0 1023.1 0.0
27/11:00pm 7.5 5.2 5.7 88 0.8 W 7 9 4 5 1023.1 1023.2 0.0
27/10:30pm 8.3 5.7 6.3 87 0.9 NNW 9 13 5 7 1023.2 1023.3 0.0
27/10:00pm 9.1 5.7 6.0 81 1.4 NNW 13 17 7 9 1023.1 1023.2 0.0
27/09:30pm 9.2 6.9 5.9 80 1.5 W 7 13 4 7 1023.4 1023.5 0.0
27/09:00pm 9.1 8.2 6.0 81 1.4 CALM 0 6 0 3 1023.3 1023.4 0.0
27/08:30pm 9.3 7.1 6.0 80 1.5 ESE 7 11 4 6 1023.1 1023.2 0.0
27/08:00pm 9.2 6.6 5.9 80 1.5 SSE 9 17 5 9 1022.9 1023.0 0.0
27/07:30pm 9.2 5.5 6.1 81 1.4 SSW 15 22 8 12 1022.8 1022.9 0.0
27/07:00pm 9.5 6.8 5.8 78 1.7 SSW 9 20 5 11 1022.7 1022.8 0.0
27/06:30pm 9.5 6.0 5.5 76 1.8 SSW 13 20 7 11 1022.3 1022.4 0.0
27/06:00pm 10.0 6.2 5.6 74 2.0 SSW 15 24 8 13 1022.1 1022.2 0.0
27/05:30pm 10.3 7.1 5.0 69 2.4 SSE 11 17 6 9 1021.9 1022.0 0.0
27/05:00pm 10.3 6.5 6.0 75 2.0 SSE 15 20 8 11 1021.7 1021.8 0.0
27/04:30pm 10.7 6.8 5.2 69 2.5 SE 15 22 8 12 1021.6 1021.7 0.0
27/04:00pm 11.6 8.3 4.3 61 3.3 SSE 11 17 6 9 1021.5 1021.6 0.0
27/03:30pm 10.4 6.3 6.3 76 1.9 E 17 20 9 11 1021.5 1021.6 0.0
27/03:00pm 11.0 7.6 5.8 70 2.4 ESE 13 22 7 12 1021.6 1021.7 0.0
27/02:30pm 10.4 8.2 6.3 76 1.9 E 7 11 4 6 1021.6 1021.7 0.0
27/02:00pm 9.9 7.1 5.3 73 2.1 ESE 9 11 5 6 1021.8 1021.9 0.0
27/01:30pm 10.5 7.8 3.7 63 3.0 ESE 7 9 4 5 1021.9 1022.0 0.0
27/01:00pm 11.0 8.5 3.8 61 3.2 E 6 9 3 5 1022.2 1022.3 0.0
27/12:30pm 10.1 7.5 3.4 63 2.9 SSE 6 7 3 4 1022.6 1022.7 0.0
27/12:00pm 9.8 7.3 3.6 65 2.7 E 6 9 3 5 1023.1 1023.2 0.0
27/11:30am 9.9 7.4 4.0 67 2.6 ENE 6 9 3 5 1023.3 1023.4 0.0
27/11:00am 9.7 8.3 3.5 65 2.7 CALM 0 0 0 0 1023.5 1023.6 0.0
27/10:30am 9.5 6.8 3.8 67 2.5 NNW 7 9 4 5 1023.7 1023.8 0.0
27/10:00am 9.2 7.4 3.7 68 2.4 N 2 7 1 4 1023.9 1024.0 0.0
27/09:30am 8.3 5.5 3.4 71 2.1 NNW 7 9 4 5 1024.1 1024.2 0.0
27/09:00am 7.2 4.4 3.4 77 1.6 NNW 7 9 4 5 1024.4 1024.5 0.0
27/08:30am 6.4 4.6 3.3 80 1.3 WNW 2 6 1 3 1024.5 1024.6 0.0
27/08:00am 5.9 2.6 2.7 80 1.3 NNW 9 11 5 6 1024.4 1024.5 0.0
27/07:30am 5.9 1.8 2.5 79 1.4 NNW 13 15 7 8 1024.3 1024.4 0.0
27/07:00am 5.6 2.9 2.9 83 1.1 NW 6 11 3 6 1024.2 1024.3 0.0
27/06:30am 5.4 4.0 3.7 89 0.7 CALM 0 0 0 0 1024.0 1024.1 0.0
27/06:00am 5.3 3.9 3.4 87 0.8 CALM 0 0 0 0 1023.9 1024.0 0.0
27/05:30am 5.2 3.8 3.3 87 0.8 CALM 0 0 0 0 1023.9 1024.0 0.0
27/05:00am 5.6 1.7 3.2 84 1.0 NW 13 17 7 9 1024.0 1024.1 0.0
27/04:30am 5.2 2.6 3.3 87 0.8 NW 6 7 3 4 1024.1 1024.2 0.0
27/04:00am 5.2 2.6 3.3 87 0.8 NNW 6 9 3 5 1024.3 1024.4 0.0
27/03:30am 5.2 1.3 3.3 87 0.8 NNW 13 17 7 9 1024.4 1024.5 0.0
27/03:00am 4.9 2.3 3.4 90 0.6 NNW 6 9 3 5 1024.8 1024.9 0.0
27/02:30am 4.3 2.1 3.1 92 0.5 NNW 4 9 2 5 1025.3 1025.4 0.0
27/02:00am 4.4 2.9 2.9 90 0.6 CALM 0 0 0 0 1025.8 1025.9 0.0
27/01:30am 4.7 3.2 3.2 90 0.6 CALM 0 0 0 0 1026.0 1026.1 0.0
27/01:00am 4.9 2.1 3.4 90 0.6 NNW 7 7 4 4 1026.4 1026.5 0.0
27/12:30am 5.1 2.0 3.4 89 0.7 W 9 11 5 6 1026.4 1026.5 0.0
27/12:00am 5.5 2.4 3.6 87 0.8 W 9 11 5 6 1026.6 1026.7 0.0
 
Date/Time
EST
Tmp

°C
App
Tmp
°C
Dew
Point
°C
Rel
Hum
%
Delta-T

°C
Wind Press
QNH
hPa
Press
MSL
hPa
Rain
since
9 am
mm
Dir
 
Spd
km/h
Gust
km/h
Spd
kts
Gust
kts
26/11:30pm 5.9 3.4 3.8 86 0.9 W 6 48 3 26 1026.9 1027.0 0.0
26/11:00pm 5.9 3.4 3.8 86 0.9 WNW 6 7 3 4 1026.9 1027.0 0.0
26/10:30pm 6.1 3.4 3.7 84 1.0 W 7 9 4 5 1027.2 1027.3 0.0
26/10:00pm 6.1 3.4 3.5 83 1.1 WNW 7 11 4 6 1027.5 1027.6 0.0
26/09:30pm 6.5 3.4 3.7 82 1.2 WSW 9 11 5 6 1027.5 1027.6 0.0
26/09:00pm 7.3 4.7 4.0 79 1.4 WSW 7 9 4 5 1027.4 1027.5 0.0
26/08:30pm 8.2 5.2 4.0 75 1.8 SW 9 13 5 7 1027.4 1027.5 0.0
26/08:00pm 8.1 4.3 3.9 75 1.8 WSW 13 17 7 9 1027.4 1027.5 0.0
26/07:30pm 8.3 4.9 4.1 75 1.8 SW 11 15 6 8 1027.4 1027.5 0.0
26/07:00pm 8.8 5.1 4.5 74 1.9 SW 13 17 7 9 1027.3 1027.4 0.0
26/06:30pm 9.0 5.3 4.5 73 2.0 SW 13 17 7 9 1027.2 1027.3 0.0
26/06:00pm 9.7 6.4 4.8 71 2.2 SW 11 13 6 7 1027.1 1027.2 0.0
26/05:30pm 11.0 7.7 4.5 64 2.9 SE 11 15 6 8 1027.0 1027.1 0.0
26/05:00pm 11.5 7.8 4.4 61 3.2 SE 13 15 7 8 1027.0 1027.1 0.0
26/04:30pm 12.0 8.3 4.2 59 3.5 SE 13 17 7 9 1027.0 1027.1 0.0
26/04:00pm 12.4 8.7 4.2 57 3.7 ESE 13 17 7 9 1027.1 1027.2 0.0
26/03:30pm 13.0 8.7 3.3 51 4.3 SE 15 19 8 10 1027.2 1027.3 0.0
26/03:00pm 13.4 9.8 2.7 48 4.7 SE 11 17 6 9 1027.2 1027.3 0.0
26/02:30pm 13.2 9.1 2.4 48 4.7 ESE 13 17 7 9 1027.3 1027.4 0.0
26/02:00pm 13.4 10.6 3.0 49 4.6 ESE 7 13 4 7 1027.5 1027.6 0.0
26/01:30pm 14.7 10.9 1.5 40 5.8 N 11 17 6 9 1027.9 1028.0 0.0
26/01:00pm 14.6 10.5 2.0 42 5.5 NNW 13 17 7 9 1028.4 1028.6 0.0
26/12:30pm 14.0 10.0 2.7 46 5.0 NNW 13 22 7 12 1029.0 1029.2 0.0
26/12:00pm 12.9 9.0 3.2 51 4.3 NNW 13 15 7 8 1029.5 1029.7 0.0
26/11:30am 11.2 6.5 2.9 56 3.6 NNW 17 22 9 12 1029.9 1030.1 0.0
26/11:00am 10.7 6.5 3.6 61 3.1 NNW 15 20 8 11 1030.1 1030.3 0.0
26/10:30am 9.1 4.3 2.7 64 2.7 NNW 17 22 9 12 1030.4 1030.6 0.0
26/10:00am 8.0 2.6 2.2 67 2.4 NNW 20 26 11 14 1030.7 1030.8 0.0
26/09:30am 7.0 1.5 2.1 71 2.0 NNW 20 28 11 15 1030.8 1030.9 0.0
26/09:00am 5.7 0.2 1.9 76 1.5 NNW 20 28 11 15 1030.8 1030.9 0.0
26/08:30am 5.0 0.5 2.0 81 1.2 NNW 15 20 8 11 1030.9 1031.0 0.0
26/08:00am 4.6 0.0 1.8 82 1.1 NW 15 20 8 11 1031.0 1031.1 0.0
26/07:30am 3.9 -1.6 1.6 85 0.9 NW 20 28 11 15 1030.9 1031.0 0.0
26/07:00am 3.2 -3.1 1.6 89 0.6 NW 24 30 13 16 1030.4 1030.6 0.0
26/06:30am 3.6 -2.7 1.8 88 0.7 NNW 24 30 13 16 1030.3 1030.5 0.0
26/06:00am 3.8 -1.7 1.7 86 0.8 NW 20 26 11 14 1030.2 1030.4 0.0
26/05:30am 3.7 -1.6 1.9 88 0.7 NW 19 28 10 15 1030.1 1030.3 0.0
26/05:00am 4.0 -2.2 2.0 87 0.8 NNW 24 32 13 17 1030.1 1030.3 0.0
26/04:30am 4.3 -0.6 2.0 85 0.9 NW 17 24 9 13 1030.3 1030.5 0.0
26/04:00am 4.1 0.0 2.3 88 0.7 NW 13 20 7 11 1030.2 1030.4 0.0
26/03:30am 3.8 2.2 2.3 90 0.6 CALM 0 6 0 3 1030.3 1030.5 0.0
26/03:00am 4.3 1.3 2.3 87 0.8 WNW 7 11 4 6 1030.4 1030.6 0.0
26/02:30am 4.0 -0.1 2.2 88 0.7 NW 13 17 7 9 1030.7 1030.8 0.0
26/02:00am 3.9 2.2 2.1 88 0.7 CALM 0 0 0 0 1030.9 1031.0 0.0
26/01:30am 3.9 1.9 2.1 88 0.7 W 2 7 1 4 1031.0 1031.1 0.0
26/01:00am 4.1 1.1 2.3 88 0.7 N 7 9 4 5 1031.1 1031.2 0.0
26/12:30am 4.7 2.0 2.7 87 0.8 WSW 6 9 3 5 1031.2 1031.3 0.0
26/12:00am 4.8 2.5 2.6 86 0.9 WSW 4 6 2 3 1031.1 1031.2 0.0
 
Date/Time
EST
Tmp

°C
App
Tmp
°C
Dew
Point
°C
Rel
Hum
%
Delta-T

°C
Wind Press
QNH
hPa
Press
MSL
hPa
Rain
since
9 am
mm
Dir
 
Spd
km/h
Gust
km/h
Spd
kts
Gust
kts
25/11:30pm 4.9 2.2 2.4 84 1.0 WNW 6 9 3 5 1031.2 1031.3 0.0
25/11:00pm 5.2 2.5 2.7 84 1.0 W 6 9 3 5 1031.2 1031.3 0.0
25/10:30pm 5.4 2.5 2.7 83 1.1 W 7 7 4 4 1031.2 1031.3 0.0
25/10:00pm 6.3 3.0 2.6 77 1.5 WSW 9 11 5 6 1031.0 1031.1 0.0
25/09:30pm 6.5 2.9 2.9 78 1.5 WSW 11 13 6 7 1030.9 1031.0 0.0
25/09:00pm 6.6 2.6 3.0 78 1.5 WSW 13 17 7 9 1030.8 1030.9 0.0
25/08:30pm 7.0 3.1 3.2 77 1.6 WSW 13 17 7 9 1030.7 1030.8 0.0
25/08:00pm 7.5 3.9 3.2 74 1.8 SW 11 13 6 7 1030.3 1030.5 0.0
25/07:30pm 7.6 3.7 3.3 74 1.8 WSW 13 17 7 9 1030.0 1030.2 0.0
25/07:00pm 7.9 4.4 3.4 73 1.9 SW 11 15 6 8 1029.8 1030.0 0.0
25/06:30pm 8.1 5.0 3.7 74 1.9 WSW 9 11 5 6 1029.5 1029.7 0.0
25/06:00pm 8.8 5.0 3.7 70 2.2 WSW 13 15 7 8 1029.0 1029.2 0.0
25/05:30pm 9.8 7.1 3.6 65 2.7 SSW 7 13 4 7 1028.8 1029.0 0.0
25/05:00pm 10.6 6.6 2.6 57 3.4 SE 13 17 7 9 1028.4 1028.6 0.0
25/04:30pm 11.2 7.4 1.7 52 4.0 SE 11 15 6 8 1028.2 1028.3 0.0
25/04:00pm 11.4 7.4 2.6 54 3.8 SE 13 17 7 9 1027.9 1028.0 0.0
25/03:30pm 11.5 7.8 2.4 53 3.9 SE 11 15 6 8 1027.9 1028.0 0.0
25/03:00pm 11.9 7.7 1.5 49 4.4 SE 13 17 7 9 1027.9 1028.0 0.0
25/02:30pm 12.0 7.8 1.6 49 4.4 SE 13 15 7 8 1027.9 1028.0 0.0
25/02:00pm 11.6 7.3 1.0 48 4.4 ESE 13 17 7 9 1027.8 1027.9 0.0
25/01:30pm 12.7 8.5 1.7 47 4.7 NE 13 15 7 8 1027.9 1028.0 0.0
25/01:00pm 12.1 8.1 0.8 46 4.7 NE 11 15 6 8 1028.0 1028.1 0.0
25/12:30pm 11.6 7.7 1.0 48 4.4 NE 11 15 6 8 1028.2 1028.3 0.0

Latest Capital City Observations: Canberra | Sydney | Melbourne | Brisbane | Adelaide | Perth | Hobart | Darwin

Other Formats:

Comma delimited format used in spreadsheet applications
http://www.bom.gov.au/fwo/IDT60901/IDT60901.94970.axf

JavaScript Object Notation format (JSON) in row-major order
http://www.bom.gov.au/fwo/IDT60901/IDT60901.94970.json